Fort-de-France, Martinique
Current Conditions -  °F | °C
As of 4:30 AM on Friday 24 Oct 2014 (Local Time) from TFFF Reporting Station
Light Rain Light Rain  
Wind Chill: 77°   Ceiling: 1900
Heat Index: 78°   Visibility: 0.4mi
Dew Point: 75°   Wind: 2mph
Humidity: 94%   Direction: NA
Pressure: 29.91"   Gusts: NA
Location:  14.6°N, 61.08°W
Report Text: TFFF 240830Z AUTO VRB02KT 0650 R10/1400D -RA FG FEW013///BKN019/// BKN027/// ///CB 25/24 Q1013
Loading
Personal Weather Stations






























Interactive Weather Map
Tropical Storm Tracking
New forecast layout! Learn more

10-Day Weather Forecast

Advertisements
Track Severe Weather on mobile